createdAt,value
2018-12-23T00:01:00.541Z,2.70
2018-12-23T00:03:28.045Z,1.50
2018-12-23T00:05:55.500Z,1.30
2018-12-23T00:08:22.994Z,1.40
2018-12-23T00:10:50.509Z,2.77
2018-12-23T00:13:17.981Z,1.80
2018-12-23T00:15:45.446Z,2.20
2018-12-23T00:18:12.962Z,1.17
2018-12-23T00:20:40.516Z,1.40
2018-12-23T00:23:08.015Z,1.60
2018-12-23T00:25:35.491Z,2.13
2018-12-23T00:28:02.952Z,1.77
2018-12-23T00:30:30.441Z,1.83
2018-12-23T00:32:57.925Z,1.73
2018-12-23T00:35:25.405Z,1.60
2018-12-23T00:37:52.903Z,1.40
2018-12-23T00:40:20.365Z,1.50
2018-12-23T00:42:48.773Z,1.70
2018-12-23T00:45:16.263Z,1.70
2018-12-23T00:47:43.755Z,3.13
2018-12-23T00:50:11.223Z,1.93
2018-12-23T00:52:38.721Z,1.50
2018-12-23T00:55:06.303Z,2.03
2018-12-23T00:57:33.787Z,1.97
2018-12-23T01:00:01.255Z,1.50
2018-12-23T01:02:28.737Z,1.60
2018-12-23T01:04:56.213Z,1.80
2018-12-23T01:07:23.697Z,1.30
2018-12-23T01:09:51.171Z,1.30
2018-12-23T01:12:18.665Z,1.40
2018-12-23T01:14:46.127Z,2.07
2018-12-23T01:17:13.755Z,1.20
2018-12-23T01:19:41.231Z,1.60
2018-12-23T01:22:08.699Z,1.10
2018-12-23T01:24:36.185Z,1.73
2018-12-23T01:27:03.721Z,1.43
2018-12-23T01:29:31.196Z,1.00
2018-12-23T01:31:58.682Z,0.97
2018-12-23T01:34:26.174Z,1.83
2018-12-23T01:36:53.628Z,1.13
2018-12-23T01:39:21.132Z,1.13
2018-12-23T01:41:48.625Z,1.00
2018-12-23T01:44:16.167Z,1.30
2018-12-23T01:46:43.640Z,1.50
2018-12-23T01:49:11.256Z,1.30
2018-12-23T01:51:38.772Z,1.50
2018-12-23T01:54:06.252Z,1.37
2018-12-23T01:56:33.729Z,1.50
2018-12-23T01:59:01.315Z,1.60
2018-12-23T02:01:28.821Z,1.63
2018-12-23T02:03:56.295Z,1.90
2018-12-23T02:06:23.771Z,1.73
2018-12-23T02:08:51.233Z,1.53
2018-12-23T02:11:18.711Z,2.40
2018-12-23T02:13:46.176Z,2.03
2018-12-23T02:16:13.664Z,1.50
2018-12-23T02:18:41.153Z,2.27
2018-12-23T02:21:08.685Z,1.70
2018-12-23T02:23:36.198Z,1.80
2018-12-23T02:26:03.652Z,1.60
2018-12-23T02:28:31.152Z,2.13
2018-12-23T02:30:58.624Z,1.90
2018-12-23T02:33:26.179Z,2.33
2018-12-23T02:35:55.806Z,3.40
2018-12-23T02:38:23.206Z,2.10
2018-12-23T02:40:50.667Z,2.27
2018-12-23T02:43:18.526Z,2.40
2018-12-23T02:45:45.985Z,2.53
2018-12-23T02:48:13.491Z,2.30
2018-12-23T02:50:40.974Z,2.60
2018-12-23T02:53:08.462Z,2.33
2018-12-23T02:55:35.958Z,2.27
2018-12-23T02:58:03.441Z,2.30
2018-12-23T03:00:30.937Z,2.07
2018-12-23T03:02:58.405Z,2.53
2018-12-23T03:05:26.040Z,2.10
2018-12-23T03:07:53.600Z,2.67
2018-12-23T03:10:21.077Z,1.90
2018-12-23T03:12:48.571Z,2.10
2018-12-23T03:15:16.064Z,2.23
2018-12-23T03:17:43.531Z,3.93
2018-12-23T03:20:11.005Z,4.40
2018-12-23T03:22:38.677Z,2.17
2018-12-23T03:25:06.324Z,1.90
2018-12-23T03:27:33.909Z,2.57
2018-12-23T03:30:01.407Z,2.20
2018-12-23T03:32:28.887Z,2.63
2018-12-23T03:34:56.369Z,3.23
2018-12-23T03:37:23.815Z,2.60
2018-12-23T03:39:51.329Z,2.53
2018-12-23T03:42:18.803Z,3.03
2018-12-23T03:44:46.297Z,2.53
2018-12-23T03:47:13.849Z,3.57
2018-12-23T03:49:41.349Z,3.47
2018-12-23T03:52:08.822Z,3.20
2018-12-23T03:54:36.296Z,4.30
2018-12-23T03:57:03.857Z,5.00
2018-12-23T03:59:31.379Z,4.63
2018-12-23T04:01:58.927Z,5.03
2018-12-23T04:04:26.465Z,4.30
2018-12-23T04:06:53.978Z,4.00
2018-12-23T04:09:21.445Z,4.23
2018-12-23T04:11:48.920Z,3.47
2018-12-23T04:14:16.386Z,3.80
2018-12-23T04:16:43.870Z,3.70
2018-12-23T04:19:11.361Z,5.10
2018-12-23T04:21:39.288Z,3.13
2018-12-23T04:24:06.755Z,4.57
2018-12-23T04:26:34.485Z,4.43
2018-12-23T04:29:01.944Z,2.97
2018-12-23T04:31:29.438Z,3.37
2018-12-23T04:33:56.916Z,3.93
2018-12-23T04:36:33.799Z,3.30
2018-12-23T04:38:53.902Z,4.07
2018-12-23T04:41:21.400Z,3.43
2018-12-23T04:43:48.878Z,3.43
2018-12-23T04:46:16.474Z,3.53
2018-12-23T04:48:43.955Z,3.43
2018-12-23T04:51:11.436Z,3.57
2018-12-23T04:53:38.897Z,5.57
2018-12-23T04:56:06.375Z,4.67
2018-12-23T04:58:34.313Z,3.70
2018-12-23T05:01:01.798Z,5.03
2018-12-23T05:03:29.289Z,4.33
2018-12-23T05:05:56.765Z,5.03
2018-12-23T05:08:24.239Z,3.63
2018-12-23T05:10:51.721Z,3.37
2018-12-23T05:13:19.199Z,3.43
2018-12-23T05:15:46.701Z,3.77
2018-12-23T05:18:14.169Z,6.30
2018-12-23T05:20:41.653Z,4.30
2018-12-23T05:23:09.129Z,5.00
2018-12-23T05:25:36.597Z,4.57
2018-12-23T05:28:04.073Z,5.27
2018-12-23T05:30:31.543Z,4.63
2018-12-23T05:32:59.021Z,4.50
2018-12-23T05:35:26.477Z,5.63
2018-12-23T05:37:53.968Z,4.90
2018-12-23T05:40:21.418Z,7.70
2018-12-23T05:42:48.893Z,6.90
2018-12-23T05:45:16.365Z,7.43
2018-12-23T05:47:43.897Z,10.00
2018-12-23T05:50:11.361Z,13.90
2018-12-23T05:52:38.839Z,12.53
2018-12-23T05:55:06.309Z,12.20
2018-12-23T05:57:33.791Z,12.17
2018-12-23T06:00:01.257Z,9.60
2018-12-23T06:02:28.743Z,8.67
2018-12-23T06:04:56.218Z,10.00
2018-12-23T06:07:23.705Z,8.07
2018-12-23T06:09:51.180Z,6.03
2018-12-23T06:12:18.643Z,5.50
2018-12-23T06:14:46.126Z,5.00
2018-12-23T06:17:13.666Z,5.33
2018-12-23T06:19:41.133Z,7.47
2018-12-23T06:22:08.629Z,4.20
2018-12-23T06:24:36.110Z,5.70
2018-12-23T06:27:03.657Z,10.17
2018-12-23T06:29:31.138Z,4.90
2018-12-23T06:31:58.622Z,8.53
2018-12-23T06:34:26.116Z,6.07
2018-12-23T06:36:53.620Z,8.07
2018-12-23T06:39:21.123Z,7.10
2018-12-23T06:41:48.659Z,6.70
2018-12-23T06:44:16.147Z,6.33
2018-12-23T06:46:43.625Z,7.53
2018-12-23T06:49:11.107Z,5.60
2018-12-23T06:51:38.580Z,4.23
2018-12-23T06:54:06.070Z,5.57
2018-12-23T06:56:33.559Z,6.70
2018-12-23T06:59:01.122Z,6.33
2018-12-23T07:01:28.579Z,5.87
2018-12-23T07:03:56.071Z,7.47
2018-12-23T07:06:23.566Z,5.93
2018-12-23T07:08:51.039Z,4.90
2018-12-23T07:11:18.514Z,5.57
2018-12-23T07:13:45.986Z,5.83
2018-12-23T07:16:13.464Z,4.23
2018-12-23T07:18:40.966Z,5.90
2018-12-23T07:21:08.441Z,3.70
2018-12-23T07:23:35.919Z,8.87
2018-12-23T07:26:03.439Z,5.53
2018-12-23T07:28:31.166Z,7.60
2018-12-23T07:30:58.636Z,7.13
2018-12-23T07:33:26.124Z,6.37
2018-12-23T07:35:53.594Z,4.67
2018-12-23T07:38:21.052Z,5.17
2018-12-23T07:40:48.521Z,6.07
2018-12-23T07:43:15.983Z,7.17
2018-12-23T07:45:43.468Z,4.50
2018-12-23T07:48:10.947Z,5.23
2018-12-23T07:50:38.441Z,5.17
2018-12-23T07:53:05.998Z,6.83
2018-12-23T07:55:33.505Z,10.80
2018-12-23T07:58:01.025Z,12.53
2018-12-23T08:00:28.530Z,5.97
2018-12-23T08:02:55.977Z,7.80
2018-12-23T08:05:23.486Z,6.17
2018-12-23T08:07:50.992Z,4.50
2018-12-23T08:10:18.471Z,8.83
2018-12-23T08:12:45.937Z,8.83
2018-12-23T08:15:13.434Z,5.43
2018-12-23T08:17:40.932Z,6.53
2018-12-23T08:20:08.468Z,4.43
2018-12-23T08:22:35.928Z,9.30
2018-12-23T08:25:03.564Z,4.90
2018-12-23T08:27:35.036Z,8.00
2018-12-23T08:30:02.711Z,6.10
2018-12-23T08:32:30.187Z,10.77
2018-12-23T08:34:57.663Z,5.77
2018-12-23T08:37:25.152Z,9.27
2018-12-23T08:39:52.648Z,7.07
2018-12-23T08:42:20.132Z,8.33
2018-12-23T08:44:47.607Z,7.93
2018-12-23T08:47:15.081Z,10.60
2018-12-23T08:49:42.576Z,8.03
2018-12-23T08:52:10.058Z,4.80
2018-12-23T08:54:37.588Z,7.77
2018-12-23T08:57:05.148Z,7.37
2018-12-23T08:59:32.618Z,6.63
2018-12-23T09:02:00.150Z,10.53
2018-12-23T09:04:27.632Z,6.87
2018-12-23T09:06:55.132Z,5.27
2018-12-23T09:09:22.596Z,3.97
2018-12-23T09:11:50.111Z,7.93
2018-12-23T09:14:17.610Z,4.30
2018-12-23T09:16:45.096Z,6.77
2018-12-23T09:19:12.583Z,6.63
2018-12-23T09:21:40.103Z,4.60
2018-12-23T09:24:07.578Z,5.10
2018-12-23T09:26:35.277Z,5.83
2018-12-23T09:29:02.762Z,7.77
2018-12-23T09:31:30.251Z,4.93
2018-12-23T09:33:57.842Z,6.20
2018-12-23T09:36:25.462Z,6.93
2018-12-23T09:38:53.014Z,5.57
2018-12-23T09:41:20.568Z,5.23
2018-12-23T09:43:48.188Z,5.87
2018-12-23T09:46:15.774Z,4.83
2018-12-23T09:48:43.268Z,5.03
2018-12-23T09:51:10.767Z,3.97
2018-12-23T09:53:38.310Z,9.77
2018-12-23T09:56:05.816Z,6.53
2018-12-23T09:58:33.287Z,5.30
2018-12-23T10:01:00.768Z,8.40
2018-12-23T10:03:28.220Z,7.60
2018-12-23T10:05:55.728Z,6.43
2018-12-23T10:08:23.188Z,5.93
2018-12-23T10:10:50.666Z,5.60
2018-12-23T10:13:18.150Z,4.77
2018-12-23T10:15:45.613Z,6.77
2018-12-23T10:18:13.087Z,5.70
2018-12-23T10:20:40.561Z,6.80
2018-12-23T10:23:08.048Z,5.87
2018-12-23T10:25:35.519Z,4.80
2018-12-23T10:28:03.029Z,4.93
2018-12-23T10:30:30.512Z,5.43
2018-12-23T10:32:57.991Z,5.93
2018-12-23T10:35:25.547Z,5.17
2018-12-23T10:37:53.049Z,6.60
2018-12-23T10:40:20.509Z,5.37
2018-12-23T10:42:48.009Z,6.80
2018-12-23T10:45:15.491Z,6.97
2018-12-23T10:47:42.969Z,4.23
2018-12-23T10:50:10.447Z,4.93
2018-12-23T10:52:37.930Z,5.53
2018-12-23T10:55:05.480Z,8.50
2018-12-23T10:57:32.971Z,5.17
2018-12-23T11:00:00.444Z,5.50
2018-12-23T11:02:27.942Z,8.07
2018-12-23T11:04:55.404Z,5.37
2018-12-23T11:07:22.953Z,5.87
2018-12-23T11:09:50.434Z,3.87
2018-12-23T11:12:17.910Z,7.40
2018-12-23T11:14:45.400Z,7.17
2018-12-23T11:17:12.882Z,4.47
2018-12-23T11:19:40.365Z,6.30
2018-12-23T11:22:07.854Z,4.10
2018-12-23T11:24:35.346Z,6.20
2018-12-23T11:27:02.821Z,5.30
2018-12-23T11:29:30.316Z,7.57
2018-12-23T11:31:57.804Z,4.37
2018-12-23T11:34:25.276Z,7.87
2018-12-23T11:36:52.932Z,5.20
2018-12-23T11:39:20.887Z,5.73
2018-12-23T11:41:48.380Z,2.70
2018-12-23T11:44:15.858Z,5.77
2018-12-23T11:46:43.358Z,5.80
2018-12-23T11:49:10.823Z,9.23
2018-12-23T11:51:38.311Z,5.50
2018-12-23T11:54:05.796Z,4.97
2018-12-23T11:56:33.272Z,4.37
2018-12-23T11:59:00.772Z,10.63
2018-12-23T12:01:28.340Z,3.60
2018-12-23T12:03:55.828Z,6.13
2018-12-23T12:06:23.360Z,6.30
2018-12-23T12:08:50.871Z,3.67
2018-12-23T12:11:18.339Z,5.53
2018-12-23T12:13:45.847Z,3.80
2018-12-23T12:16:13.319Z,4.83
2018-12-23T12:18:40.875Z,6.10
2018-12-23T12:21:08.356Z,2.73
2018-12-23T12:24:23.273Z,6.07
2018-12-23T12:27:04.039Z,7.27
2018-12-23T12:29:45.052Z,4.83
2018-12-23T12:37:46.025Z,9.23
2018-12-23T12:46:34.794Z,11.53
2018-12-23T12:49:22.719Z,8.50
2018-12-23T12:52:03.988Z,7.40
2018-12-23T12:54:44.642Z,10.27
2018-12-23T13:00:44.598Z,7.70
2018-12-23T13:06:13.003Z,5.60
2018-12-23T13:11:40.366Z,10.67
2018-12-23T13:20:25.254Z,8.63
2018-12-23T13:23:06.523Z,10.53
2018-12-23T13:25:48.231Z,9.77
2018-12-23T13:28:29.535Z,9.40
2018-12-23T13:31:14.130Z,9.73
2018-12-23T13:40:06.459Z,10.37
2018-12-23T13:45:35.441Z,8.17
2018-12-23T13:51:06.522Z,9.53
2018-12-23T13:56:34.858Z,8.77
2018-12-23T14:05:49.005Z,9.37
2018-12-23T14:08:30.847Z,10.00
2018-12-23T14:11:12.079Z,12.30
2018-12-23T14:13:53.240Z,8.60
2018-12-23T14:16:34.460Z,11.07
2018-12-23T14:19:15.342Z,14.43
2018-12-23T14:21:56.541Z,11.47
2018-12-23T14:24:37.631Z,7.27
2018-12-23T14:27:18.355Z,10.57
2018-12-23T14:33:01.394Z,11.67
2018-12-23T14:38:26.405Z,6.97
2018-12-23T14:41:07.289Z,7.00
2018-12-23T14:43:48.235Z,8.70
2018-12-23T14:49:19.630Z,13.97
2018-12-23T14:58:11.114Z,7.40
2018-12-23T15:00:51.836Z,15.73
2018-12-23T15:03:33.251Z,13.43
2018-12-23T15:06:14.430Z,9.57
2018-12-23T15:08:55.052Z,11.97
2018-12-23T15:11:36.391Z,10.47
2018-12-23T15:14:17.511Z,13.87
2018-12-23T15:16:58.783Z,8.77
2018-12-23T15:19:39.836Z,10.60
2018-12-23T15:25:06.629Z,6.97
2018-12-23T15:27:49.069Z,8.00
2018-12-23T15:33:36.766Z,8.10
2018-12-23T15:39:00.473Z,5.43
2018-12-23T15:53:15.675Z,3.60
2018-12-23T15:58:46.459Z,4.47
2018-12-23T16:01:46.227Z,4.80
2018-12-23T16:04:27.211Z,4.27
2018-12-23T16:09:59.777Z,4.70
2018-12-23T16:12:41.013Z,4.07
2018-12-23T16:19:01.789Z,6.93
2018-12-23T16:21:42.897Z,7.30
2018-12-23T16:27:37.268Z,5.97
2018-12-23T16:30:19.131Z,8.40
2018-12-23T16:33:00.506Z,6.73
2018-12-23T16:35:41.746Z,7.50
2018-12-23T16:41:10.479Z,6.93
2018-12-23T16:43:51.743Z,6.90
2018-12-23T16:46:33.086Z,5.83
2018-12-23T16:49:14.250Z,3.40
2018-12-23T16:51:55.731Z,3.97
2018-12-23T16:57:24.463Z,6.97
2018-12-23T17:00:24.584Z,5.27
2018-12-23T17:03:05.639Z,6.03
2018-12-23T17:05:46.650Z,7.23
2018-12-23T17:11:34.969Z,3.83
2018-12-23T17:14:16.948Z,3.53
2018-12-23T17:19:45.480Z,4.73
2018-12-23T17:22:26.450Z,4.70
2018-12-23T17:25:08.646Z,4.60
2018-12-23T17:28:09.033Z,4.77
2018-12-23T17:33:37.582Z,5.03
2018-12-23T17:42:11.422Z,3.37
2018-12-23T17:48:09.118Z,4.07
2018-12-23T17:54:14.484Z,5.53
2018-12-23T17:59:43.377Z,3.37
2018-12-23T18:05:43.823Z,4.97
2018-12-23T18:08:43.667Z,4.80
2018-12-23T18:11:24.500Z,6.47
2018-12-23T18:14:05.549Z,5.40
2018-12-23T18:16:46.376Z,5.50
2018-12-23T18:19:27.565Z,5.80
2018-12-23T18:24:57.446Z,7.87
2018-12-23T18:30:25.584Z,8.93
2018-12-23T18:33:06.822Z,10.90
2018-12-23T18:35:47.378Z,6.30
2018-12-23T18:38:28.584Z,7.33
2018-12-23T18:41:09.636Z,9.57
2018-12-23T18:43:50.910Z,8.00
2018-12-23T18:46:32.021Z,5.67
2018-12-23T18:51:52.295Z,5.80
2018-12-23T18:57:20.474Z,6.30
2018-12-23T19:02:49.126Z,4.80
2018-12-23T19:05:30.345Z,6.17
2018-12-23T19:10:59.542Z,7.83
2018-12-23T19:13:40.392Z,7.67
2018-12-23T19:16:21.266Z,6.23
2018-12-23T19:21:50.282Z,5.90
2018-12-23T19:24:31.513Z,8.87
2018-12-23T19:27:12.706Z,6.57
2018-12-23T19:29:53.831Z,6.73
2018-12-23T19:32:35.072Z,8.60
2018-12-23T19:38:27.848Z,7.80
2018-12-23T19:43:56.760Z,8.43
2018-12-23T20:04:27.480Z,5.57
2018-12-23T20:07:34.861Z,9.13
2018-12-23T20:10:42.168Z,6.47
2018-12-23T20:13:22.510Z,7.60
2018-12-23T20:16:03.949Z,6.77
2018-12-23T20:21:32.153Z,4.60
2018-12-23T20:26:52.560Z,5.30
2018-12-23T20:29:33.377Z,4.33
2018-12-23T20:32:14.616Z,4.73
2018-12-23T20:34:55.949Z,8.97
2018-12-23T20:37:37.286Z,4.53
2018-12-23T20:40:18.194Z,4.67
2018-12-23T20:46:13.007Z,6.40
2018-12-23T20:48:54.768Z,5.80
2018-12-23T20:57:59.184Z,5.63
2018-12-23T21:00:48.622Z,5.23
2018-12-23T21:06:52.452Z,4.20
2018-12-23T21:09:33.674Z,4.60
2018-12-23T21:12:33.566Z,7.20
2018-12-23T21:15:17.666Z,5.70
2018-12-23T21:20:47.060Z,6.23
2018-12-23T21:26:07.387Z,6.43
2018-12-23T21:37:48.330Z,3.70
2018-12-23T21:43:46.428Z,3.07
2018-12-23T21:46:27.801Z,3.53
2018-12-23T21:49:20.768Z,3.17
2018-12-23T21:52:01.662Z,3.43
2018-12-23T21:55:02.132Z,2.87
2018-12-23T21:57:42.888Z,3.37
2018-12-23T22:00:23.000Z,2.33
2018-12-23T22:03:03.285Z,2.20
2018-12-23T22:09:04.257Z,2.63
2018-12-23T22:14:33.009Z,1.70
2018-12-23T22:20:25.651Z,1.97
2018-12-23T22:25:57.185Z,1.57
2018-12-23T22:31:27.675Z,2.60
2018-12-23T22:40:00.828Z,2.60
2018-12-23T22:42:42.149Z,2.67
2018-12-23T22:45:25.951Z,3.30
2018-12-23T22:48:07.196Z,1.97
2018-12-23T22:51:07.471Z,1.83
2018-12-23T22:53:48.285Z,2.50
2018-12-23T22:59:42.547Z,1.17
2018-12-23T23:05:08.901Z,2.50
2018-12-23T23:07:49.578Z,4.33
2018-12-23T23:13:05.518Z,1.77
2018-12-23T23:15:53.425Z,1.57
2018-12-23T23:21:58.802Z,1.97
2018-12-23T23:24:39.566Z,2.73
2018-12-23T23:27:20.072Z,4.70
2018-12-23T23:32:47.660Z,2.40
2018-12-23T23:35:28.456Z,4.40
2018-12-23T23:40:57.618Z,4.03
2018-12-23T23:43:39.319Z,4.90
2018-12-23T23:48:59.538Z,5.97
2018-12-23T23:51:40.835Z,3.93
2018-12-23T23:54:21.498Z,4.47
